Search for airport 
image banner adimage banner adimage banner ad
image banner ad

7CL4 - Mcmwtc

Located in Bridgeport, United States

ICAO - 7CL4, IATA -

Data provided by Airmate  

General information

Coordinates: N38°21'20" W119°31'8"
Elevation is 6779 feet MSL.
Magnetic variation is 15° East
View others Airports in California

Operational data

Special qualification required
Current time UTC:
Current local time:
Weather at : KTVL - Lake Tahoe ( 73 km )
METAR: KTVL 210253Z AUTO 05004KT 10SM CLR 13/M05 A3033 RMK AO2 SLP249 T01331050 53015
TAF: KTVL 202320Z 2100/2124 06010G18KT P6SM SKC FM210100 VRB04KT P6SM SKC FM212100 04008KT P6SM SKC
View NOTAMs / SUP AIP / TFR affecting this airport [VIEW]
Communications frequencies: [VIEW]

Runways:

Airport contact information

Address: Bridgeport United States

Satellite view of 7CL4